sensor_id;sensor_type;location;lat;lon;timestamp;P1;durP1;ratioP1;P2;durP2;ratioP2
51738;SDS011;37815;52.692;6.226;2023-06-26T00:01:34;7.80;;;6.18;;
51738;SDS011;37815;52.692;6.226;2023-06-26T00:06:34;6.80;;;6.07;;
51738;SDS011;37815;52.692;6.226;2023-06-26T00:11:36;6.57;;;5.93;;
51738;SDS011;37815;52.692;6.226;2023-06-26T00:16:36;7.18;;;6.10;;
51738;SDS011;37815;52.692;6.226;2023-06-26T00:21:37;7.63;;;6.50;;
51738;SDS011;37815;52.692;6.226;2023-06-26T00:26:39;8.38;;;6.85;;
51738;SDS011;37815;52.692;6.226;2023-06-26T00:31:40;6.55;;;5.85;;
51738;SDS011;37815;52.692;6.226;2023-06-26T00:36:40;7.43;;;5.80;;
51738;SDS011;37815;52.692;6.226;2023-06-26T00:41:44;8.98;;;6.35;;
51738;SDS011;37815;52.692;6.226;2023-06-26T00:46:44;8.88;;;6.45;;
51738;SDS011;37815;52.692;6.226;2023-06-26T00:51:45;7.95;;;6.55;;
51738;SDS011;37815;52.692;6.226;2023-06-26T00:56:46;7.63;;;6.75;;
51738;SDS011;37815;52.692;6.226;2023-06-26T01:01:48;7.47;;;6.68;;
51738;SDS011;37815;52.692;6.226;2023-06-26T01:06:49;7.22;;;6.43;;
51738;SDS011;37815;52.692;6.226;2023-06-26T01:11:52;7.93;;;6.63;;
51738;SDS011;37815;52.692;6.226;2023-06-26T01:16:52;7.18;;;6.15;;
51738;SDS011;37815;52.692;6.226;2023-06-26T01:27:34;7.90;;;7.10;;
51738;SDS011;37815;52.692;6.226;2023-06-26T01:32:35;6.88;;;6.15;;
51738;SDS011;37815;52.692;6.226;2023-06-26T01:37:36;7.53;;;6.72;;
51738;SDS011;37815;52.692;6.226;2023-06-26T01:42:37;7.63;;;6.70;;
51738;SDS011;37815;52.692;6.226;2023-06-26T01:47:38;7.03;;;6.32;;
51738;SDS011;37815;52.692;6.226;2023-06-26T01:52:46;6.90;;;6.20;;
51738;SDS011;37815;52.692;6.226;2023-06-26T01:58:01;7.28;;;6.45;;
51738;SDS011;37815;52.692;6.226;2023-06-26T02:03:03;7.47;;;6.68;;
51738;SDS011;37815;52.692;6.226;2023-06-26T02:08:05;7.65;;;6.47;;
51738;SDS011;37815;52.692;6.226;2023-06-26T02:13:06;11.35;;;6.22;;
51738;SDS011;37815;52.692;6.226;2023-06-26T02:18:07;8.05;;;7.25;;
51738;SDS011;37815;52.692;6.226;2023-06-26T02:23:07;8.30;;;6.35;;
51738;SDS011;37815;52.692;6.226;2023-06-26T02:28:08;8.23;;;7.20;;
51738;SDS011;37815;52.692;6.226;2023-06-26T02:33:09;7.82;;;7.03;;
51738;SDS011;37815;52.692;6.226;2023-06-26T02:38:09;7.45;;;6.65;;
51738;SDS011;37815;52.692;6.226;2023-06-26T02:43:10;8.07;;;6.80;;
51738;SDS011;37815;52.692;6.226;2023-06-26T02:48:10;7.80;;;7.00;;
51738;SDS011;37815;52.692;6.226;2023-06-26T02:53:11;7.68;;;6.70;;
51738;SDS011;37815;52.692;6.226;2023-06-26T02:58:12;8.43;;;7.25;;
51738;SDS011;37815;52.692;6.226;2023-06-26T03:03:13;8.43;;;7.10;;
51738;SDS011;37815;52.692;6.226;2023-06-26T03:08:14;8.52;;;7.00;;
51738;SDS011;37815;52.692;6.226;2023-06-26T03:13:14;8.07;;;7.25;;
51738;SDS011;37815;52.692;6.226;2023-06-26T03:18:15;8.20;;;6.97;;
51738;SDS011;37815;52.692;6.226;2023-06-26T03:23:16;8.55;;;7.10;;
51738;SDS011;37815;52.692;6.226;2023-06-26T03:28:17;8.80;;;6.60;;
51738;SDS011;37815;52.692;6.226;2023-06-26T03:33:17;9.43;;;7.28;;
51738;SDS011;37815;52.692;6.226;2023-06-26T03:38:18;8.05;;;7.13;;
51738;SDS011;37815;52.692;6.226;2023-06-26T03:43:19;8.50;;;7.15;;
51738;SDS011;37815;52.692;6.226;2023-06-26T03:48:20;8.10;;;6.63;;
51738;SDS011;37815;52.692;6.226;2023-06-26T03:53:20;8.70;;;6.97;;
51738;SDS011;37815;52.692;6.226;2023-06-26T03:58:21;7.05;;;6.22;;
51738;SDS011;37815;52.692;6.226;2023-06-26T04:03:22;7.40;;;6.35;;
51738;SDS011;37815;52.692;6.226;2023-06-26T04:08:23;7.78;;;6.50;;
51738;SDS011;37815;52.692;6.226;2023-06-26T04:13:26;7.07;;;6.18;;
51738;SDS011;37815;52.692;6.226;2023-06-26T04:18:28;7.32;;;6.35;;
51738;SDS011;37815;52.692;6.226;2023-06-26T04:23:29;8.50;;;6.35;;
51738;SDS011;37815;52.692;6.226;2023-06-26T04:28:31;6.40;;;5.68;;
51738;SDS011;37815;52.692;6.226;2023-06-26T04:33:32;8.82;;;6.32;;
51738;SDS011;37815;52.692;6.226;2023-06-26T04:38:33;8.27;;;5.88;;
51738;SDS011;37815;52.692;6.226;2023-06-26T04:43:34;8.48;;;5.82;;
51738;SDS011;37815;52.692;6.226;2023-06-26T04:48:35;7.95;;;5.60;;
51738;SDS011;37815;52.692;6.226;2023-06-26T04:53:35;6.78;;;5.85;;
51738;SDS011;37815;52.692;6.226;2023-06-26T04:58:36;9.20;;;5.47;;
51738;SDS011;37815;52.692;6.226;2023-06-26T05:03:36;6.60;;;5.03;;
51738;SDS011;37815;52.692;6.226;2023-06-26T05:08:37;8.13;;;5.28;;
51738;SDS011;37815;52.692;6.226;2023-06-26T05:13:37;8.85;;;5.63;;
51738;SDS011;37815;52.692;6.226;2023-06-26T05:18:38;6.75;;;5.03;;
51738;SDS011;37815;52.692;6.226;2023-06-26T05:23:39;10.70;;;5.57;;
51738;SDS011;37815;52.692;6.226;2023-06-26T05:28:40;7.78;;;4.95;;
51738;SDS011;37815;52.692;6.226;2023-06-26T05:33:41;8.80;;;4.80;;
51738;SDS011;37815;52.692;6.226;2023-06-26T05:38:44;6.95;;;5.13;;
51738;SDS011;37815;52.692;6.226;2023-06-26T05:43:45;7.57;;;5.10;;
51738;SDS011;37815;52.692;6.226;2023-06-26T05:48:45;7.85;;;4.22;;
51738;SDS011;37815;52.692;6.226;2023-06-26T05:53:47;6.57;;;3.35;;
51738;SDS011;37815;52.692;6.226;2023-06-26T05:58:49;5.25;;;2.90;;
51738;SDS011;37815;52.692;6.226;2023-06-26T06:03:51;5.28;;;2.22;;
51738;SDS011;37815;52.692;6.226;2023-06-26T06:08:52;5.32;;;1.90;;
51738;SDS011;37815;52.692;6.226;2023-06-26T06:13:52;5.63;;;1.70;;
51738;SDS011;37815;52.692;6.226;2023-06-26T06:18:53;5.13;;;1.83;;
51738;SDS011;37815;52.692;6.226;2023-06-26T06:23:54;7.70;;;1.70;;
51738;SDS011;37815;52.692;6.226;2023-06-26T06:28:55;4.35;;;1.63;;
51738;SDS011;37815;52.692;6.226;2023-06-26T06:33:55;2.47;;;1.40;;
51738;SDS011;37815;52.692;6.226;2023-06-26T06:38:56;4.45;;;1.50;;
51738;SDS011;37815;52.692;6.226;2023-06-26T06:43:57;5.63;;;1.65;;
51738;SDS011;37815;52.692;6.226;2023-06-26T06:48:57;3.28;;;1.20;;
51738;SDS011;37815;52.692;6.226;2023-06-26T06:53:58;2.67;;;1.55;;
51738;SDS011;37815;52.692;6.226;2023-06-26T06:58:58;3.00;;;1.52;;
51738;SDS011;37815;52.692;6.226;2023-06-26T07:03:59;2.78;;;1.75;;
51738;SDS011;37815;52.692;6.226;2023-06-26T07:09:00;4.70;;;1.65;;
51738;SDS011;37815;52.692;6.226;2023-06-26T07:14:01;2.92;;;1.70;;
51738;SDS011;37815;52.692;6.226;2023-06-26T07:19:01;4.13;;;1.60;;
51738;SDS011;37815;52.692;6.226;2023-06-26T07:24:02;3.70;;;1.70;;
51738;SDS011;37815;52.692;6.226;2023-06-26T07:29:02;2.67;;;1.38;;
51738;SDS011;37815;52.692;6.226;2023-06-26T07:34:03;4.00;;;1.35;;
51738;SDS011;37815;52.692;6.226;2023-06-26T07:39:04;3.92;;;1.60;;
51738;SDS011;37815;52.692;6.226;2023-06-26T07:44:05;2.03;;;1.30;;
51738;SDS011;37815;52.692;6.226;2023-06-26T07:49:05;4.13;;;1.83;;
51738;SDS011;37815;52.692;6.226;2023-06-26T07:54:06;4.15;;;1.60;;
51738;SDS011;37815;52.692;6.226;2023-06-26T07:59:07;4.60;;;1.45;;
51738;SDS011;37815;52.692;6.226;2023-06-26T08:04:07;3.17;;;1.55;;
51738;SDS011;37815;52.692;6.226;2023-06-26T08:09:11;4.25;;;1.48;;
51738;SDS011;37815;52.692;6.226;2023-06-26T08:14:12;2.72;;;1.42;;
51738;SDS011;37815;52.692;6.226;2023-06-26T08:19:15;2.88;;;1.67;;
51738;SDS011;37815;52.692;6.226;2023-06-26T08:24:16;6.07;;;1.88;;
51738;SDS011;37815;52.692;6.226;2023-06-26T08:29:18;4.18;;;1.50;;
51738;SDS011;37815;52.692;6.226;2023-06-26T08:34:19;3.92;;;1.60;;
51738;SDS011;37815;52.692;6.226;2023-06-26T08:39:20;4.63;;;1.60;;
51738;SDS011;37815;52.692;6.226;2023-06-26T08:44:20;4.97;;;1.90;;
51738;SDS011;37815;52.692;6.226;2023-06-26T08:50:10;4.50;;;2.13;;
51738;SDS011;37815;52.692;6.226;2023-06-26T08:54:54;4.35;;;2.13;;
51738;SDS011;37815;52.692;6.226;2023-06-26T08:59:58;5.47;;;2.10;;
51738;SDS011;37815;52.692;6.226;2023-06-26T09:05:00;4.07;;;2.42;;
51738;SDS011;37815;52.692;6.226;2023-06-26T09:10:01;4.10;;;2.10;;
51738;SDS011;37815;52.692;6.226;2023-06-26T09:15:02;3.03;;;2.03;;
51738;SDS011;37815;52.692;6.226;2023-06-26T09:20:03;4.50;;;2.60;;
51738;SDS011;37815;52.692;6.226;2023-06-26T09:25:05;3.35;;;2.15;;
51738;SDS011;37815;52.692;6.226;2023-06-26T09:30:06;3.97;;;2.13;;
51738;SDS011;37815;52.692;6.226;2023-06-26T09:35:07;6.82;;;2.97;;
51738;SDS011;37815;52.692;6.226;2023-06-26T09:40:08;4.50;;;2.25;;
51738;SDS011;37815;52.692;6.226;2023-06-26T09:45:16;4.82;;;2.20;;
51738;SDS011;37815;52.692;6.226;2023-06-26T09:50:21;8.18;;;2.60;;
51738;SDS011;37815;52.692;6.226;2023-06-26T09:55:23;3.97;;;2.45;;
51738;SDS011;37815;52.692;6.226;2023-06-26T10:00:25;7.28;;;2.42;;
51738;SDS011;37815;52.692;6.226;2023-06-26T10:05:25;11.27;;;2.50;;
51738;SDS011;37815;52.692;6.226;2023-06-26T10:10:26;4.35;;;2.15;;
51738;SDS011;37815;52.692;6.226;2023-06-26T10:15:27;11.63;;;2.17;;
51738;SDS011;37815;52.692;6.226;2023-06-26T10:20:30;6.60;;;2.20;;
51738;SDS011;37815;52.692;6.226;2023-06-26T10:25:30;5.22;;;2.15;;
51738;SDS011;37815;52.692;6.226;2023-06-26T10:30:33;4.90;;;2.05;;
51738;SDS011;37815;52.692;6.226;2023-06-26T10:35:41;3.42;;;1.98;;
51738;SDS011;37815;52.692;6.226;2023-06-26T10:40:44;4.90;;;1.92;;
51738;SDS011;37815;52.692;6.226;2023-06-26T10:45:49;6.05;;;2.15;;
51738;SDS011;37815;52.692;6.226;2023-06-26T11:06:20;5.35;;;2.00;;
51738;SDS011;37815;52.692;6.226;2023-06-26T11:11:21;4.30;;;1.95;;
51738;SDS011;37815;52.692;6.226;2023-06-26T11:16:42;2.75;;;1.33;;
51738;SDS011;37815;52.692;6.226;2023-06-26T11:21:43;4.82;;;2.33;;
51738;SDS011;37815;52.692;6.226;2023-06-26T11:26:44;8.00;;;1.60;;
51738;SDS011;37815;52.692;6.226;2023-06-26T11:31:46;3.63;;;1.65;;
51738;SDS011;37815;52.692;6.226;2023-06-26T11:36:47;4.45;;;1.42;;
51738;SDS011;37815;52.692;6.226;2023-06-26T11:41:48;3.25;;;1.25;;
51738;SDS011;37815;52.692;6.226;2023-06-26T11:46:51;2.72;;;1.20;;
51738;SDS011;37815;52.692;6.226;2023-06-26T11:51:54;2.92;;;1.23;;
51738;SDS011;37815;52.692;6.226;2023-06-26T11:56:55;5.75;;;1.20;;
51738;SDS011;37815;52.692;6.226;2023-06-26T12:01:58;2.90;;;1.10;;
51738;SDS011;37815;52.692;6.226;2023-06-26T12:06:58;5.63;;;2.03;;
51738;SDS011;37815;52.692;6.226;2023-06-26T12:12:00;3.25;;;1.30;;
51738;SDS011;37815;52.692;6.226;2023-06-26T12:17:05;4.78;;;1.30;;
51738;SDS011;37815;52.692;6.226;2023-06-26T12:22:10;4.72;;;1.00;;
51738;SDS011;37815;52.692;6.226;2023-06-26T12:27:14;2.35;;;1.00;;
51738;SDS011;37815;52.692;6.226;2023-06-26T12:32:17;5.53;;;1.00;;
51738;SDS011;37815;52.692;6.226;2023-06-26T12:37:18;4.40;;;1.40;;
51738;SDS011;37815;52.692;6.226;2023-06-26T12:42:19;4.30;;;1.10;;
51738;SDS011;37815;52.692;6.226;2023-06-26T12:47:28;4.82;;;1.60;;
51738;SDS011;37815;52.692;6.226;2023-06-26T12:52:30;5.43;;;1.13;;
51738;SDS011;37815;52.692;6.226;2023-06-26T12:57:31;4.07;;;0.90;;
51738;SDS011;37815;52.692;6.226;2023-06-26T13:02:32;2.85;;;0.95;;
51738;SDS011;37815;52.692;6.226;2023-06-26T13:07:32;3.17;;;1.00;;
51738;SDS011;37815;52.692;6.226;2023-06-26T13:12:33;2.85;;;1.02;;
51738;SDS011;37815;52.692;6.226;2023-06-26T13:17:34;1.63;;;0.82;;
51738;SDS011;37815;52.692;6.226;2023-06-26T13:22:34;1.77;;;0.90;;
51738;SDS011;37815;52.692;6.226;2023-06-26T13:27:35;5.20;;;1.20;;
51738;SDS011;37815;52.692;6.226;2023-06-26T13:32:36;4.55;;;1.27;;
51738;SDS011;37815;52.692;6.226;2023-06-26T13:37:36;7.80;;;1.25;;
51738;SDS011;37815;52.692;6.226;2023-06-26T13:42:37;5.72;;;1.20;;
51738;SDS011;37815;52.692;6.226;2023-06-26T13:47:38;3.13;;;1.10;;
51738;SDS011;37815;52.692;6.226;2023-06-26T13:52:41;3.70;;;1.13;;
51738;SDS011;37815;52.692;6.226;2023-06-26T13:57:41;4.60;;;1.20;;
51738;SDS011;37815;52.692;6.226;2023-06-26T14:02:42;3.88;;;0.90;;
51738;SDS011;37815;52.692;6.226;2023-06-26T14:07:43;5.25;;;1.27;;
51738;SDS011;37815;52.692;6.226;2023-06-26T14:12:43;3.65;;;1.10;;
51738;SDS011;37815;52.692;6.226;2023-06-26T14:17:44;2.40;;;0.90;;
51738;SDS011;37815;52.692;6.226;2023-06-26T14:22:44;5.30;;;1.35;;
51738;SDS011;37815;52.692;6.226;2023-06-26T14:27:45;6.38;;;0.98;;
51738;SDS011;37815;52.692;6.226;2023-06-26T14:32:46;2.97;;;0.88;;
51738;SDS011;37815;52.692;6.226;2023-06-26T14:37:47;3.42;;;1.00;;
51738;SDS011;37815;52.692;6.226;2023-06-26T14:42:48;3.92;;;0.90;;
51738;SDS011;37815;52.692;6.226;2023-06-26T14:47:48;7.43;;;1.27;;
51738;SDS011;37815;52.692;6.226;2023-06-26T14:52:49;8.52;;;1.20;;
51738;SDS011;37815;52.692;6.226;2023-06-26T14:57:50;5.57;;;1.23;;
51738;SDS011;37815;52.692;6.226;2023-06-26T15:02:50;2.92;;;0.95;;
51738;SDS011;37815;52.692;6.226;2023-06-26T15:07:53;5.00;;;1.10;;
51738;SDS011;37815;52.692;6.226;2023-06-26T15:12:53;4.93;;;1.10;;
51738;SDS011;37815;52.692;6.226;2023-06-26T15:17:54;2.13;;;0.93;;
51738;SDS011;37815;52.692;6.226;2023-06-26T15:22:55;4.65;;;1.23;;
51738;SDS011;37815;52.692;6.226;2023-06-26T15:27:56;2.25;;;0.77;;
51738;SDS011;37815;52.692;6.226;2023-06-26T15:32:57;1.65;;;0.95;;
51738;SDS011;37815;52.692;6.226;2023-06-26T15:37:57;4.93;;;1.17;;
51738;SDS011;37815;52.692;6.226;2023-06-26T15:42:58;2.92;;;1.10;;
51738;SDS011;37815;52.692;6.226;2023-06-26T15:47:58;6.63;;;1.30;;
51738;SDS011;37815;52.692;6.226;2023-06-26T15:53:01;2.03;;;1.05;;
51738;SDS011;37815;52.692;6.226;2023-06-26T15:58:02;2.35;;;1.08;;
51738;SDS011;37815;52.692;6.226;2023-06-26T16:03:03;3.58;;;1.25;;
51738;SDS011;37815;52.692;6.226;2023-06-26T16:08:04;3.05;;;0.73;;
51738;SDS011;37815;52.692;6.226;2023-06-26T16:13:04;1.90;;;0.80;;
51738;SDS011;37815;52.692;6.226;2023-06-26T16:18:05;3.30;;;1.27;;
51738;SDS011;37815;52.692;6.226;2023-06-26T16:23:06;2.08;;;0.82;;
51738;SDS011;37815;52.692;6.226;2023-06-26T16:28:07;2.83;;;1.08;;
51738;SDS011;37815;52.692;6.226;2023-06-26T16:33:07;2.63;;;1.00;;
51738;SDS011;37815;52.692;6.226;2023-06-26T16:38:08;3.63;;;1.10;;
51738;SDS011;37815;52.692;6.226;2023-06-26T16:43:11;4.47;;;1.63;;
51738;SDS011;37815;52.692;6.226;2023-06-26T16:48:12;1.48;;;1.00;;
51738;SDS011;37815;52.692;6.226;2023-06-26T16:53:13;1.92;;;1.00;;
51738;SDS011;37815;52.692;6.226;2023-06-26T16:58:14;1.85;;;0.90;;
51738;SDS011;37815;52.692;6.226;2023-06-26T17:03:15;4.70;;;0.93;;
51738;SDS011;37815;52.692;6.226;2023-06-26T17:08:17;3.33;;;1.13;;
51738;SDS011;37815;52.692;6.226;2023-06-26T17:13:17;3.20;;;1.15;;
51738;SDS011;37815;52.692;6.226;2023-06-26T17:18:18;4.95;;;0.95;;
51738;SDS011;37815;52.692;6.226;2023-06-26T17:23:18;2.88;;;0.93;;
51738;SDS011;37815;52.692;6.226;2023-06-26T17:28:19;4.60;;;1.20;;
51738;SDS011;37815;52.692;6.226;2023-06-26T17:33:20;2.13;;;0.90;;
51738;SDS011;37815;52.692;6.226;2023-06-26T17:38:20;3.00;;;0.98;;
51738;SDS011;37815;52.692;6.226;2023-06-26T17:43:21;6.35;;;1.10;;
51738;SDS011;37815;52.692;6.226;2023-06-26T17:48:22;3.85;;;1.20;;
51738;SDS011;37815;52.692;6.226;2023-06-26T17:53:22;2.58;;;1.00;;
51738;SDS011;37815;52.692;6.226;2023-06-26T17:58:23;2.13;;;0.77;;
51738;SDS011;37815;52.692;6.226;2023-06-26T18:03:24;2.97;;;1.20;;
51738;SDS011;37815;52.692;6.226;2023-06-26T18:08:24;3.53;;;1.40;;
51738;SDS011;37815;52.692;6.226;2023-06-26T18:13:25;3.60;;;1.52;;
51738;SDS011;37815;52.692;6.226;2023-06-26T18:18:28;4.60;;;1.00;;
51738;SDS011;37815;52.692;6.226;2023-06-26T18:23:28;4.15;;;1.10;;
51738;SDS011;37815;52.692;6.226;2023-06-26T18:28:29;3.80;;;1.10;;
51738;SDS011;37815;52.692;6.226;2023-06-26T18:33:31;4.55;;;1.10;;
51738;SDS011;37815;52.692;6.226;2023-06-26T18:38:32;3.15;;;1.10;;
51738;SDS011;37815;52.692;6.226;2023-06-26T18:43:32;4.65;;;1.08;;
51738;SDS011;37815;52.692;6.226;2023-06-26T18:48:33;3.22;;;0.85;;
51738;SDS011;37815;52.692;6.226;2023-06-26T18:53:34;1.60;;;0.90;;
51738;SDS011;37815;52.692;6.226;2023-06-26T18:58:35;3.70;;;1.42;;
51738;SDS011;37815;52.692;6.226;2023-06-26T19:03:36;3.92;;;1.30;;
51738;SDS011;37815;52.692;6.226;2023-06-26T19:08:36;3.88;;;1.10;;
51738;SDS011;37815;52.692;6.226;2023-06-26T19:13:37;3.33;;;1.10;;
51738;SDS011;37815;52.692;6.226;2023-06-26T19:18:38;3.88;;;1.30;;
51738;SDS011;37815;52.692;6.226;2023-06-26T19:23:38;3.90;;;1.30;;
51738;SDS011;37815;52.692;6.226;2023-06-26T19:28:39;2.78;;;1.00;;
51738;SDS011;37815;52.692;6.226;2023-06-26T19:33:40;2.78;;;0.98;;
51738;SDS011;37815;52.692;6.226;2023-06-26T19:38:40;2.65;;;1.10;;
51738;SDS011;37815;52.692;6.226;2023-06-26T19:43:41;2.78;;;1.02;;
51738;SDS011;37815;52.692;6.226;2023-06-26T19:48:41;2.42;;;1.00;;
51738;SDS011;37815;52.692;6.226;2023-06-26T19:53:42;3.03;;;1.10;;
51738;SDS011;37815;52.692;6.226;2023-06-26T19:58:43;2.72;;;1.00;;
51738;SDS011;37815;52.692;6.226;2023-06-26T20:03:44;3.10;;;1.10;;
51738;SDS011;37815;52.692;6.226;2023-06-26T20:08:44;5.07;;;1.17;;
51738;SDS011;37815;52.692;6.226;2023-06-26T20:13:45;2.03;;;1.10;;
51738;SDS011;37815;52.692;6.226;2023-06-26T20:18:46;7.45;;;1.20;;
51738;SDS011;37815;52.692;6.226;2023-06-26T20:23:46;5.00;;;1.10;;
51738;SDS011;37815;52.692;6.226;2023-06-26T20:28:47;2.88;;;1.20;;
51738;SDS011;37815;52.692;6.226;2023-06-26T20:33:50;2.10;;;1.08;;
51738;SDS011;37815;52.692;6.226;2023-06-26T20:38:50;6.00;;;1.60;;
51738;SDS011;37815;52.692;6.226;2023-06-26T20:43:51;5.70;;;2.00;;
51738;SDS011;37815;52.692;6.226;2023-06-26T20:48:52;3.25;;;1.13;;
51738;SDS011;37815;52.692;6.226;2023-06-26T20:53:53;1.88;;;1.20;;
51738;SDS011;37815;52.692;6.226;2023-06-26T20:58:54;3.38;;;1.38;;
51738;SDS011;37815;52.692;6.226;2023-06-26T21:03:55;4.13;;;1.15;;
51738;SDS011;37815;52.692;6.226;2023-06-26T21:08:55;2.95;;;1.20;;
51738;SDS011;37815;52.692;6.226;2023-06-26T21:13:56;3.42;;;1.15;;
51738;SDS011;37815;52.692;6.226;2023-06-26T21:18:57;3.72;;;1.50;;
51738;SDS011;37815;52.692;6.226;2023-06-26T21:23:57;2.10;;;1.25;;
51738;SDS011;37815;52.692;6.226;2023-06-26T21:28:58;1.95;;;1.08;;
51738;SDS011;37815;52.692;6.226;2023-06-26T21:33:58;5.45;;;1.60;;
51738;SDS011;37815;52.692;6.226;2023-06-26T21:38:59;2.90;;;1.35;;
51738;SDS011;37815;52.692;6.226;2023-06-26T21:44:00;3.13;;;1.33;;
51738;SDS011;37815;52.692;6.226;2023-06-26T21:49:01;1.55;;;1.08;;
51738;SDS011;37815;52.692;6.226;2023-06-26T21:54:02;4.13;;;1.50;;
51738;SDS011;37815;52.692;6.226;2023-06-26T21:59:02;2.47;;;1.13;;
51738;SDS011;37815;52.692;6.226;2023-06-26T22:04:03;2.63;;;1.50;;
51738;SDS011;37815;52.692;6.226;2023-06-26T22:09:04;3.15;;;1.02;;
51738;SDS011;37815;52.692;6.226;2023-06-26T22:14:05;3.08;;;1.10;;
51738;SDS011;37815;52.692;6.226;2023-06-26T22:19:06;1.98;;;1.23;;
51738;SDS011;37815;52.692;6.226;2023-06-26T22:24:08;2.50;;;1.05;;
51738;SDS011;37815;52.692;6.226;2023-06-26T22:29:09;4.25;;;1.73;;
51738;SDS011;37815;52.692;6.226;2023-06-26T22:34:09;2.42;;;1.33;;
51738;SDS011;37815;52.692;6.226;2023-06-26T22:39:10;2.38;;;0.95;;
51738;SDS011;37815;52.692;6.226;2023-06-26T22:44:11;3.03;;;1.55;;
51738;SDS011;37815;52.692;6.226;2023-06-26T22:49:11;3.13;;;1.50;;
51738;SDS011;37815;52.692;6.226;2023-06-26T22:54:12;1.50;;;1.20;;
51738;SDS011;37815;52.692;6.226;2023-06-26T22:59:13;2.45;;;1.20;;
51738;SDS011;37815;52.692;6.226;2023-06-26T23:04:13;2.38;;;1.48;;
51738;SDS011;37815;52.692;6.226;2023-06-26T23:09:14;3.35;;;1.25;;
51738;SDS011;37815;52.692;6.226;2023-06-26T23:14:15;1.40;;;1.17;;
51738;SDS011;37815;52.692;6.226;2023-06-26T23:19:15;2.53;;;1.33;;
51738;SDS011;37815;52.692;6.226;2023-06-26T23:24:16;1.92;;;1.23;;
51738;SDS011;37815;52.692;6.226;2023-06-26T23:29:17;2.58;;;1.20;;
51738;SDS011;37815;52.692;6.226;2023-06-26T23:34:18;1.55;;;1.20;;
51738;SDS011;37815;52.692;6.226;2023-06-26T23:39:19;3.13;;;1.25;;
51738;SDS011;37815;52.692;6.226;2023-06-26T23:44:20;3.53;;;1.55;;
51738;SDS011;37815;52.692;6.226;2023-06-26T23:49:21;2.85;;;1.35;;
51738;SDS011;37815;52.692;6.226;2023-06-26T23:54:22;1.30;;;1.02;;
51738;SDS011;37815;52.692;6.226;2023-06-26T23:59:22;2.53;;;1.48;;
